Terminal Aerodrome Forecast
Issued by NWS Wilmington, OH

Current Version | Previous Version | Graphics & Text | Print | Product List | Glossary On
Versions: 1 2 3 4 5 6 7 8 9 10 11 12 13 14 15 16 17
000
FTUS41 KILN 152330
TAFCMH
TAF
KCMH 152330Z 1600/1624 25014G19KT P6SM BKN035 OVC040
     FM160600 23009KT P6SM BKN050
     FM161500 22011G19KT P6SM SCT250
     FM162200 21007KT P6SM BKN250=

USA.gov is the U.S. government's official web portal to all federal, state and local government web resources and services.